Time;durP1;ratioP1;P1;durP2;ratioP2;P2;SDS_P1;SDS_P2;PMS_P1;PMS_P2;Temp;Humidity;BMP_temperature;BMP_pressure;BME280_temperature;BME280_humidity;BME280_pressure;Samples;Min_cycle;Max_cycle;Signal;HPM_P1;HPM_P2
2022/06/09 00:00:49;;;;;;;13.73;3.85;;;;;;;14.87;94.59;100867.72;5010309;28;20526;-75
2022/06/09 00:03:19;;;;;;;17.60;4.13;;;;;;;14.90;94.69;100872.06;5017339;28;20040;-75
2022/06/09 00:05:45;;;;;;;13.77;4.10;;;;;;;14.88;93.98;100864.28;5010465;28;20079;-76
2022/06/09 00:08:11;;;;;;;12.00;3.53;;;;;;;14.91;94.71;100873.78;5013343;28;20393;-76
2022/06/09 00:10:40;;;;;;;12.57;3.80;;;;;;;14.84;94.38;100877.16;5008871;28;20034;-76
2022/06/09 00:13:06;;;;;;;14.27;3.85;;;;;;;14.84;94.18;100882.34;5015707;28;20043;-76
2022/06/09 00:15:31;;;;;;;15.93;3.80;;;;;;;14.81;94.61;100874.56;5016968;28;20033;-75
2022/06/09 00:17:57;;;;;;;11.65;3.58;;;;;;;14.86;94.80;100884.09;5020042;28;20040;-75
2022/06/09 00:20:23;;;;;;;11.40;3.55;;;;;;;14.88;94.53;100886.72;5017096;28;20049;-75
2022/06/09 00:22:49;;;;;;;12.90;3.88;;;;;;;14.83;94.84;100886.66;5016257;28;20036;-76
2022/06/09 00:25:14;;;;;;;14.52;3.85;;;;;;;14.86;94.01;100894.44;5015688;28;20391;-76
2022/06/09 00:27:40;;;;;;;15.02;3.60;;;;;;;14.77;94.23;100884.00;5010117;28;20365;-75
2022/06/09 00:30:07;;;;;;;16.20;4.15;;;;;;;14.78;94.99;100888.31;5013613;28;20037;-75
2022/06/09 00:32:33;;;;;;;14.90;4.00;;;;;;;14.84;94.92;100883.22;5014427;28;20210;-75
2022/06/09 00:34:58;;;;;;;16.75;4.47;;;;;;;14.82;94.65;100884.94;5015101;28;20046;-75
2022/06/09 00:37:24;;;;;;;16.33;3.85;;;;;;;14.82;94.48;100890.09;5020144;28;20041;-75
2022/06/09 00:39:49;;;;;;;13.27;3.70;;;;;;;14.84;94.41;100888.41;5015359;28;20038;-75
2022/06/09 00:42:16;;;;;;;14.52;4.00;;;;;;;14.84;94.78;100896.16;5012449;28;20037;-76
2022/06/09 00:44:43;;;;;;;19.92;4.15;;;;;;;14.83;93.95;100890.97;4996803;28;20395;-76
2022/06/09 00:47:19;;;;;;;18.52;4.00;;;;;;;14.84;94.02;100896.16;5014337;28;20048;-76
2022/06/09 00:49:52;;;;;;;15.85;4.15;;;;;;;14.77;94.17;100898.66;5015447;28;21008;-76
2022/06/09 00:52:21;;;;;;;16.73;3.97;;;;;;;14.74;94.02;100907.25;5008276;28;20116;-76
2022/06/09 00:54:48;;;;;;;;;;;;;;;14.91;93.08;100910.03;5011280;28;20025;-76
2022/06/09 00:57:33;;;;;;;15.32;4.25;;;;;;;14.77;93.56;100904.72;5012952;28;19923;-75
2022/06/09 01:00:04;;;;;;;13.40;4.15;;;;;;;14.69;93.35;100906.34;5012499;28;20471;-75
2022/06/09 01:02:30;;;;;;;19.52;4.60;;;;;;;14.66;93.40;100907.16;5017485;28;21847;-75
2022/06/09 01:04:56;;;;;;;17.10;4.32;;;;;;;14.65;93.25;100913.19;5017571;28;20052;-76
2022/06/09 01:07:30;;;;;;;15.30;4.10;;;;;;;14.68;93.18;100904.59;5016597;28;20538;-75
2022/06/09 01:09:56;;;;;;;19.75;4.38;;;;;;;14.62;93.35;100908.00;5012722;28;20049;-76
2022/06/09 01:12:25;;;;;;;15.77;4.18;;;;;;;14.61;93.48;100908.81;5032950;28;20073;-76
2022/06/09 01:14:52;;;;;;;14.98;4.10;;;;;;;14.56;93.03;100899.25;5013496;28;20036;-75
2022/06/09 01:17:20;;;;;;;21.65;4.47;;;;;;;14.55;93.08;100906.16;5013637;28;20407;-75
2022/06/09 01:20:10;;;;;;;15.25;4.30;;;;;;;14.58;93.24;100906.22;5007564;28;20037;-76
2022/06/09 01:22:52;;;;;;;18.70;5.30;;;;;;;14.56;93.31;100905.34;5014740;28;20168;-76
2022/06/09 01:25:39;;;;;;;19.92;4.70;;;;;;;14.54;93.31;100911.31;5010141;28;20030;-76
2022/06/09 01:28:37;;;;;;;20.05;4.30;;;;;;;14.55;93.64;100911.34;5017087;28;20040;-76
2022/06/09 01:31:42;;;;;;;19.33;5.35;;;;;;;14.55;93.28;100915.66;5014578;28;20029;-76
2022/06/09 01:34:18;;;;;;;20.05;4.90;;;;;;;14.51;93.28;100922.53;5004880;28;20041;-76
2022/06/09 01:37:18;;;;;;;19.00;5.25;;;;;;;14.56;93.85;100922.56;5017088;28;20042;-75
2022/06/09 01:39:52;;;;;;;17.17;4.78;;;;;;;14.49;94.19;100922.47;5014749;28;20042;-75
2022/06/09 01:42:42;;;;;;;21.35;5.03;;;;;;;14.52;93.80;100923.38;5015671;28;20032;-75
2022/06/09 01:45:22;;;;;;;20.70;5.10;;;;;;;14.50;94.08;100933.72;5017192;28;20498;-76
2022/06/09 01:47:53;;;;;;;24.83;5.28;;;;;;;14.53;93.79;100928.56;5014327;28;20061;-76
2022/06/09 01:50:28;;;;;;;19.52;5.18;;;;;;;14.50;93.96;100933.72;5013178;28;20404;-76
2022/06/09 01:52:58;;;;;;;19.58;5.00;;;;;;;14.48;93.95;100928.50;5008663;28;20156;-76
2022/06/09 01:55:25;;;;;;;21.83;5.88;;;;;;;14.47;93.95;100934.53;5011894;28;20116;-76
2022/06/09 01:57:57;;;;;;;18.95;5.50;;;;;;;14.46;94.15;100937.06;5015008;28;20053;-76
2022/06/09 02:00:23;;;;;;;19.08;5.05;;;;;;;14.44;93.98;100934.47;5013748;28;20107;-76
2022/06/09 02:03:02;;;;;;;16.02;4.93;;;;;;;14.46;94.39;100937.06;5011628;28;20422;-77
2022/06/09 02:05:29;;;;;;;;;;;;;;;14.59;93.19;100939.00;5013430;28;20048;-76
2022/06/09 02:07:58;;;;;;;21.73;6.10;;;;;;;14.44;93.94;100934.47;5008342;28;20055;-76
2022/06/09 02:10:31;;;;;;;15.30;5.10;;;;;;;14.46;93.75;100939.66;5021953;28;20116;-75
2022/06/09 02:13:02;;;;;;;18.38;5.25;;;;;;;14.43;94.10;100937.88;5015310;28;20083;-76
2022/06/09 02:15:33;;;;;;;19.58;5.53;;;;;;;14.38;94.12;100942.16;5018976;28;20056;-75
2022/06/09 02:18:05;;;;;;;21.52;5.53;;;;;;;14.40;93.95;100949.94;5015692;28;20084;-75
2022/06/09 02:20:31;;;;;;;17.88;5.40;;;;;;;14.37;94.39;100949.88;5019038;28;20029;-75
2022/06/09 02:22:56;;;;;;;23.35;6.18;;;;;;;14.30;94.54;100954.09;5008510;28;20067;-75
2022/06/09 02:25:22;;;;;;;20.73;5.93;;;;;;;14.31;94.73;100953.25;5019973;28;20037;-76
2022/06/09 02:27:47;;;;;;;21.70;5.63;;;;;;;14.31;94.70;100952.38;5008464;28;20044;-76
2022/06/09 02:30:13;;;;;;;22.02;6.22;;;;;;;14.34;94.79;100967.94;5016495;28;20049;-76
2022/06/09 02:32:38;;;;;;;18.58;5.35;;;;;;;14.36;94.61;100968.84;5015508;28;20033;-75
2022/06/09 02:35:04;;;;;;;22.58;5.50;;;;;;;14.34;94.59;100966.22;5018396;28;20032;-75
2022/06/09 02:37:29;;;;;;;20.15;5.82;;;;;;;14.34;95.14;100967.94;5019625;28;20630;-76
2022/06/09 02:39:55;;;;;;;25.10;6.43;;;;;;;14.34;95.16;100967.94;5017681;28;20088;-76
2022/06/09 02:42:20;;;;;;;23.50;6.35;;;;;;;14.33;95.34;100972.25;5015144;28;20502;-76
2022/06/09 02:44:45;;;;;;;22.52;6.13;;;;;;;14.34;94.95;100974.00;5011192;28;20091;-75
2022/06/09 02:47:11;;;;;;;21.13;5.93;;;;;;;14.27;95.13;100972.16;5016440;28;20041;-76
2022/06/09 02:49:37;;;;;;;19.23;5.80;;;;;;;14.29;95.08;100977.34;5017955;28;20033;-75
2022/06/09 02:52:03;;;;;;;22.75;6.35;;;;;;;14.31;95.17;100978.25;5017354;28;20433;-76
2022/06/09 02:54:28;;;;;;;22.40;7.10;;;;;;;14.32;95.50;100975.69;5017712;28;20044;-76
2022/06/09 02:56:54;;;;;;;26.48;6.07;;;;;;;14.31;95.30;100983.41;5012181;28;20468;-75
2022/06/09 02:59:19;;;;;;;20.27;5.88;;;;;;;14.29;95.03;100985.13;5014309;28;20124;-76
2022/06/09 03:01:45;;;;;;;23.05;6.30;;;;;;;14.33;95.52;100990.38;5006550;28;20076;-76
2022/06/09 03:04:10;;;;;;;23.23;6.95;;;;;;;14.32;94.98;100988.63;5014820;28;20055;-75
2022/06/09 03:06:35;;;;;;;20.90;6.38;;;;;;;14.34;95.43;100993.81;5018677;28;20041;-76
2022/06/09 03:09:02;;;;;;;22.05;6.55;;;;;;;14.26;95.17;100996.31;5015975;28;20887;-76
2022/06/09 03:11:28;;;;;;;23.77;5.85;;;;;;;14.22;95.38;100997.09;5013719;28;20061;-76
2022/06/09 03:13:53;;;;;;;21.83;6.35;;;;;;;14.27;95.46;100997.16;5016767;28;20826;-75
2022/06/09 03:16:19;;;;;;;20.75;6.35;;;;;;;14.25;95.75;101009.19;5015338;28;20979;-76
2022/06/09 03:18:45;;;;;;;24.20;6.35;;;;;;;14.25;95.46;101011.78;5015248;28;20547;-76
2022/06/09 03:21:12;;;;;;;22.88;6.28;;;;;;;14.25;95.29;101015.22;5015503;28;20029;-75
2022/06/09 03:23:38;;;;;;;29.77;6.05;;;;;;;14.24;95.42;101010.91;5018022;28;20092;-76
2022/06/09 03:26:04;;;;;;;21.55;6.40;;;;;;;14.26;95.76;101024.75;5017309;28;20069;-75
2022/06/09 03:28:30;;;;;;;22.77;6.32;;;;;;;14.29;95.21;101022.19;5013820;28;20084;-75
2022/06/09 03:30:55;;;;;;;26.77;6.78;;;;;;;14.31;95.85;101032.56;5012815;28;20038;-75
2022/06/09 03:33:21;;;;;;;23.15;6.45;;;;;;;14.30;96.32;101039.44;5016385;28;20084;-75
2022/06/09 03:35:46;;;;;;;24.55;6.15;;;;;;;14.29;96.10;101040.31;5010180;28;20116;-75
2022/06/09 03:38:12;;;;;;;20.30;6.10;;;;;;;14.30;96.22;101042.03;5018337;28;20048;-75
2022/06/09 03:40:37;;;;;;;23.50;6.63;;;;;;;14.31;95.86;101045.50;5015434;28;20132;-76
2022/06/09 03:43:03;;;;;;;21.25;6.50;;;;;;;14.33;96.06;101060.22;5014909;28;20637;-76
2022/06/09 03:45:29;;;;;;;21.08;6.43;;;;;;;14.33;95.91;101052.44;5031256;28;20040;-76
2022/06/09 03:47:55;;;;;;;22.83;5.95;;;;;;;14.29;96.18;101058.41;5016758;28;20032;-76
2022/06/09 03:50:25;;;;;;;18.85;6.10;;;;;;;14.30;95.20;101057.56;5019569;28;20041;-75
2022/06/09 03:52:50;;;;;;;21.98;6.43;;;;;;;14.31;95.64;101063.59;5014183;28;20052;-76
2022/06/09 03:55:17;;;;;;;20.23;5.80;;;;;;;14.26;95.33;101058.38;5020398;28;20480;-76
2022/06/09 03:57:42;;;;;;;23.90;6.90;;;;;;;14.22;95.24;101062.63;5019214;28;20118;-77
2022/06/09 04:00:14;;;;;;;27.83;6.65;;;;;;;14.24;95.29;101075.56;5017337;28;20379;-76
2022/06/09 04:02:39;;;;;;;24.42;6.25;;;;;;;14.19;94.92;101077.19;5016524;28;20037;-76
2022/06/09 04:05:05;;;;;;;16.13;5.72;;;;;;;14.22;95.30;101080.72;5016824;28;20030;-76
2022/06/09 04:07:31;;;;;;;23.08;6.35;;;;;;;14.17;94.92;101079.75;5016637;28;20041;-77
2022/06/09 04:09:56;;;;;;;24.02;6.47;;;;;;;14.16;94.77;101095.25;5010679;28;20029;-76
2022/06/09 04:12:22;;;;;;;20.02;5.95;;;;;;;14.15;95.13;101096.13;5016102;28;20539;-75
2022/06/09 04:14:47;;;;;;;20.35;6.43;;;;;;;14.17;95.02;101102.16;5011725;28;20121;-76
2022/06/09 04:17:13;;;;;;;20.80;5.75;;;;;;;14.15;95.12;101093.53;5016278;28;20041;-75
2022/06/09 04:19:40;;;;;;;24.33;6.72;;;;;;;14.13;95.13;101108.13;5013382;28;20041;-76
2022/06/09 04:22:06;;;;;;;22.58;6.20;;;;;;;14.15;95.12;101106.47;5018354;28;20048;-76
2022/06/09 04:24:32;;;;;;;20.05;5.78;;;;;;;14.13;95.07;101106.41;5007254;28;20037;-75
2022/06/09 04:26:57;;;;;;;20.88;6.43;;;;;;;14.14;94.61;101105.59;5016173;28;20032;-76
2022/06/09 04:29:23;;;;;;;22.42;6.32;;;;;;;14.05;94.93;101102.81;5016058;28;20030;-75
2022/06/09 04:31:48;;;;;;;21.52;5.95;;;;;;;14.10;95.04;101108.09;5014292;28;20029;-76
2022/06/09 04:34:14;;;;;;;21.55;5.88;;;;;;;14.04;95.44;101108.84;5008260;28;20127;-76
2022/06/09 04:36:41;;;;;;;20.50;5.82;;;;;;;14.13;95.05;101118.47;5017177;28;20041;-75
2022/06/09 04:39:08;;;;;;;19.65;5.55;;;;;;;14.13;95.38;101121.94;5000201;28;20029;-75
2022/06/09 04:41:35;;;;;;;23.30;6.10;;;;;;;14.08;94.93;101127.88;5017485;28;20056;-75
2022/06/09 04:44:01;;;;;;;22.58;5.90;;;;;;;14.05;95.40;101126.09;5003674;28;20029;-76
2022/06/09 04:46:26;;;;;;;22.63;5.63;;;;;;;14.09;95.11;101121.88;5005963;28;20507;-75
2022/06/09 04:48:52;;;;;;;23.13;6.82;;;;;;;14.08;95.06;101126.16;5012850;28;20046;-75
2022/06/09 04:51:19;;;;;;;21.15;5.78;;;;;;;14.08;95.07;101127.88;5010492;28;20025;-76
2022/06/09 04:53:47;;;;;;;18.08;5.72;;;;;;;14.11;95.04;101135.69;5009778;28;20088;-75
2022/06/09 04:56:14;;;;;;;17.10;5.82;;;;;;;14.08;95.49;101139.09;5006798;28;20101;-75
2022/06/09 04:58:40;;;;;;;15.68;6.43;;;;;;;14.11;95.16;101143.44;5007294;28;20029;-76
2022/06/09 05:01:07;;;;;;;17.65;6.28;;;;;;;14.08;95.25;101149.44;5010571;28;20042;-75
2022/06/09 05:03:34;;;;;;;26.08;6.25;;;;;;;14.12;95.44;101158.97;5010169;28;20120;-75
2022/06/09 05:05:59;;;;;;;20.70;6.60;;;;;;;14.12;95.71;101158.09;5010232;28;20033;-75
2022/06/09 05:08:25;;;;;;;24.48;7.03;;;;;;;14.15;95.58;101168.53;5009680;28;20028;-75
2022/06/09 05:10:50;;;;;;;23.10;6.30;;;;;;;14.17;96.32;101161.66;5011741;28;20056;-74
2022/06/09 05:13:16;;;;;;;23.65;6.50;;;;;;;14.23;97.01;101170.41;5007021;28;20037;-75
2022/06/09 05:15:54;;;;;;;21.05;6.65;;;;;;;14.35;96.85;101177.50;5007164;28;20411;-75
2022/06/09 05:18:22;;;;;;;23.88;6.40;;;;;;;14.30;96.44;101181.72;5002089;28;20051;-76
2022/06/09 05:20:49;;;;;;;23.92;6.65;;;;;;;14.32;96.23;101185.22;5019114;28;20467;-75
2022/06/09 05:23:15;;;;;;;17.83;6.13;;;;;;;14.28;96.27;101186.00;5012169;28;20057;-75
2022/06/09 05:25:40;;;;;;;19.02;7.05;;;;;;;14.34;96.22;101190.41;5015189;28;20084;-76
2022/06/09 05:28:06;;;;;;;25.90;6.80;;;;;;;14.31;95.76;101193.81;5012281;28;20061;-75
2022/06/09 05:30:31;;;;;;;20.27;6.32;;;;;;;14.40;95.72;101196.56;5013083;28;21306;-75
2022/06/09 05:32:56;;;;;;;23.85;6.75;;;;;;;14.36;95.70;101197.34;5010363;28;20037;-75
2022/06/09 05:35:22;;;;;;;20.63;6.28;;;;;;;14.42;96.73;101197.47;5014159;28;20025;-75
2022/06/09 05:46:04;;;;;;;24.00;6.55;;;;;;;14.56;96.40;101214.97;5015967;28;20420;-75
2022/06/09 05:48:29;;;;;;;16.35;5.80;;;;;;;14.61;96.33;101210.75;5019041;28;20557;-74
2022/06/09 05:50:55;;;;;;;18.60;6.25;;;;;;;14.68;96.50;101221.25;5012286;28;20034;-74
2022/06/09 05:53:20;;;;;;;15.20;5.70;;;;;;;14.73;97.02;101227.34;5018924;28;20444;-74
2022/06/09 05:55:46;;;;;;;18.77;6.50;;;;;;;14.75;96.71;101228.28;5019114;28;20049;-74
2022/06/09 05:58:12;;;;;;;15.25;5.70;;;;;;;14.77;96.74;101233.47;5015768;28;20056;-75
2022/06/09 06:00:38;;;;;;;14.40;4.88;;;;;;;14.75;96.59;101237.75;5015626;28;20071;-74
2022/06/09 06:03:04;;;;;;;15.68;5.63;;;;;;;14.77;95.84;101242.94;5024134;28;20041;-75
2022/06/09 06:08:13;;;;;;;14.48;4.70;;;;;;;14.82;96.89;101247.38;5021358;28;20303;-75
2022/06/09 06:10:39;;;;;;;16.08;4.60;;;;;;;14.82;96.82;101251.66;5020062;28;20464;-75
2022/06/09 06:13:04;;;;;;;16.80;4.78;;;;;;;14.87;96.10;101257.81;5014146;28;20076;-75
2022/06/09 06:15:30;;;;;;;16.27;4.88;;;;;;;14.88;96.92;101252.66;5021687;28;20092;-75
2022/06/09 06:17:55;;;;;;;15.50;4.63;;;;;;;14.91;96.84;101255.25;5016164;28;20088;-78
2022/06/09 06:20:21;;;;;;;15.52;4.90;;;;;;;14.89;96.75;101262.16;5017708;28;20034;-78
2022/06/09 06:22:46;;;;;;;15.60;4.32;;;;;;;14.90;96.48;101266.47;5019749;28;20062;-78
2022/06/09 06:25:12;;;;;;;13.70;4.05;;;;;;;14.89;95.96;101269.91;5011213;28;20029;-79
2022/06/09 06:27:38;;;;;;;13.50;4.18;;;;;;;14.92;95.88;101280.31;5019260;28;20041;-78
2022/06/09 06:30:04;;;;;;;10.32;3.58;;;;;;;14.92;95.70;101276.84;5027683;28;20623;-78
2022/06/09 06:32:30;;;;;;;13.38;4.28;;;;;;;14.90;95.78;101276.84;5016389;28;20029;-79
2022/06/09 06:34:55;;;;;;;12.65;4.30;;;;;;;14.92;95.86;101285.50;5020064;28;20389;-80
2022/06/09 06:37:23;;;;;;;13.52;4.35;;;;;;;14.90;95.61;101292.38;5015272;28;20468;-80
2022/06/09 06:39:49;;;;;;;12.43;4.38;;;;;;;14.95;95.87;101305.41;5022903;28;20040;-78
2022/06/09 06:42:15;;;;;;;16.08;4.25;;;;;;;14.94;95.83;101311.44;5018046;28;20030;-79
2022/06/09 06:45:09;;;;;;;13.55;4.30;;;;;;;14.97;95.74;101320.09;5013889;28;20035;-78
2022/06/09 06:47:35;;;;;;;12.10;4.45;;;;;;;14.96;96.63;101325.28;5014947;28;20026;-79
2022/06/09 06:50:00;;;;;;;9.95;4.75;;;;;;;15.01;97.01;101331.41;5021586;28;20029;-79
2022/06/09 06:52:26;;;;;;;16.15;4.47;;;;;;;15.00;96.69;101334.84;5017955;28;20025;-79
2022/06/09 06:54:51;;;;;;;13.90;4.70;;;;;;;14.99;96.33;101344.34;5013601;28;20052;-79
2022/06/09 06:57:17;;;;;;;10.45;4.05;;;;;;;15.02;96.92;101331.41;5003254;28;20036;-80
2022/06/09 06:59:42;;;;;;;14.77;4.10;;;;;;;15.02;95.64;101339.19;4999028;28;20125;-78
2022/06/09 07:02:11;;;;;;;14.85;4.50;;;;;;;15.06;95.85;101336.66;4999986;28;20022;-79
2022/06/09 07:04:36;;;;;;;12.30;4.60;;;;;;;15.04;96.46;101346.97;5000121;28;20902;-75
2022/06/09 07:07:02;;;;;;;12.07;4.43;;;;;;;15.03;96.83;101346.13;5009981;28;20479;-76
2022/06/09 07:09:27;;;;;;;11.13;4.07;;;;;;;15.11;97.17;101348.00;5009015;28;20041;-76
2022/06/09 07:11:52;;;;;;;13.00;3.97;;;;;;;15.08;95.32;101342.75;5014090;28;20160;-75
2022/06/09 07:14:18;;;;;;;10.73;3.47;;;;;;;15.13;94.86;101356.66;5013662;28;20033;-76
2022/06/09 07:16:44;;;;;;;8.32;3.58;;;;;;;15.16;95.42;101359.28;5013823;28;20029;-75
2022/06/09 07:19:09;;;;;;;8.88;3.03;;;;;;;15.17;94.99;101364.50;5016577;28;20095;-75
2022/06/09 07:21:34;;;;;;;7.78;3.65;;;;;;;15.22;94.41;101369.75;5014809;28;20286;-75
2022/06/09 07:24:00;;;;;;;6.75;2.88;;;;;;;15.24;95.03;101371.53;5016500;28;20488;-75
2022/06/09 07:26:26;;;;;;;10.65;3.05;;;;;;;15.22;94.83;101367.16;5015987;28;20041;-73
2022/06/09 07:28:52;;;;;;;8.52;3.10;;;;;;;15.28;94.62;101375.03;5011808;28;20037;-77
2022/06/09 07:31:18;;;;;;;8.32;2.92;;;;;;;15.32;94.77;101373.38;5019252;28;20104;-76
2022/06/09 07:33:44;;;;;;;7.18;3.15;;;;;;;15.41;95.83;101370.91;5019821;28;20034;-74
2022/06/09 07:36:17;;;;;;;7.40;3.20;;;;;;;15.41;95.25;101369.22;5013150;28;20045;-74
2022/06/09 07:38:42;;;;;;;5.68;2.90;;;;;;;15.48;94.66;101370.19;5012987;28;20594;-76
2022/06/09 07:41:09;;;;;;;7.32;2.78;;;;;;;15.53;94.22;101372.00;5016138;28;20033;-77
2022/06/09 07:43:34;;;;;;;12.65;2.88;;;;;;;15.58;94.70;101372.06;5010302;28;20476;-73
2022/06/09 07:46:00;;;;;;;5.05;2.28;;;;;;;15.61;94.78;101366.94;5011144;28;20045;-72
2022/06/09 07:48:25;;;;;;;8.55;2.88;;;;;;;15.73;96.51;101368.88;5019732;28;20090;-74
2022/06/09 07:50:51;;;;;;;5.15;2.33;;;;;;;15.85;95.45;101374.25;5012778;28;20033;-74
2022/06/09 07:53:19;;;;;;;4.30;1.83;;;;;;;15.90;92.01;101372.59;5021108;28;20037;-74
2022/06/09 07:55:46;;;;;;;3.65;1.58;;;;;;;16.00;92.28;101373.59;5017148;28;20068;-74
2022/06/09 07:58:12;;;;;;;3.92;1.52;;;;;;;16.05;91.21;101383.16;5015838;28;20034;-71
2022/06/09 08:00:39;;;;;;;4.35;1.48;;;;;;;16.15;90.43;101373.81;5014003;28;20084;-74
2022/06/09 08:03:05;;;;;;;4.68;1.60;;;;;;;16.17;91.23;101372.09;5016560;28;20017;-73
2022/06/09 08:05:32;;;;;;;3.72;1.20;;;;;;;16.24;91.16;101380.81;5016804;28;20038;-73
2022/06/09 08:07:57;;;;;;;4.07;1.10;;;;;;;16.25;89.26;101386.03;5013122;28;20048;-73
2022/06/09 08:10:27;;;;;;;2.08;1.20;;;;;;;16.32;88.89;101387.88;5015002;28;20476;-78
2022/06/09 08:12:56;;;;;;;2.38;0.90;;;;;;;16.41;87.88;101394.91;5017587;28;20116;-79
2022/06/09 08:15:26;;;;;;;2.78;0.77;;;;;;;16.49;87.36;101393.25;5019775;28;20025;-77
2022/06/09 08:17:56;;;;;;;2.55;0.82;;;;;;;16.53;86.42;101396.78;5015304;28;20132;-78
2022/06/09 08:20:22;;;;;;;2.15;0.70;;;;;;;16.52;84.02;101403.69;5019680;28;20052;-75
2022/06/09 08:22:48;;;;;;;2.47;0.70;;;;;;;16.61;84.56;101402.91;5012138;28;20034;-77
2022/06/09 08:25:17;;;;;;;2.90;0.60;;;;;;;16.71;85.08;101414.34;5015581;28;20049;-77
2022/06/09 08:27:43;;;;;;;1.65;0.80;;;;;;;16.78;83.57;101414.41;5015381;28;20071;-78
2022/06/09 08:30:13;;;;;;;2.38;0.60;;;;;;;16.91;82.12;101419.75;5014104;28;20036;-75
2022/06/09 08:32:38;;;;;;;1.55;0.68;;;;;;;16.99;82.15;101429.38;5013480;28;20032;-77
2022/06/09 08:35:09;;;;;;;1.38;0.60;;;;;;;17.05;83.71;101437.25;5009308;28;21130;-75
2022/06/09 08:37:34;;;;;;;3.45;0.73;;;;;;;17.01;81.77;101442.38;5016778;28;20091;-77
2022/06/09 08:39:59;;;;;;;2.22;0.70;;;;;;;16.97;82.01;101440.59;5013145;28;20033;-76
2022/06/09 08:42:54;;;;;;;3.40;0.70;;;;;;;16.95;79.87;101457.91;5014478;28;20038;-79
2022/06/09 08:45:27;;;;;;;1.63;0.60;;;;;;;16.88;79.31;101467.34;5011685;28;20053;-75
2022/06/09 08:47:55;;;;;;;0.98;0.50;;;;;;;16.83;77.46;101472.47;5012723;28;20036;-78
2022/06/09 08:50:33;;;;;;;2.20;0.70;;;;;;;16.84;78.92;101469.03;5011776;28;20077;-75
2022/06/09 08:53:08;;;;;;;1.90;0.80;;;;;;;16.80;78.60;101477.63;5018037;28;20091;-79
2022/06/09 08:55:47;;;;;;;3.58;0.80;;;;;;;16.78;80.57;101483.66;5016549;28;20082;-76
2022/06/09 08:58:16;;;;;;;;;;;;;;;16.88;81.93;101481.19;5020263;28;20440;-79
2022/06/09 09:00:50;;;;;;;2.70;1.00;;;;;;;16.76;81.10;101485.38;5016331;28;19924;-78
2022/06/09 09:03:28;;;;;;;3.22;1.00;;;;;;;16.66;80.77;101488.66;5017005;28;21595;-78
2022/06/09 09:06:07;;;;;;;5.03;1.23;;;;;;;16.62;81.49;101493.84;5014454;28;20022;-78
2022/06/09 09:08:32;;;;;;;;;;;;;;;16.73;82.69;101493.97;5017772;28;20768;-74
2022/06/09 09:11:16;;;;;;;4.97;1.40;;;;;;;16.59;83.38;101498.97;5015655;28;19935;-78
2022/06/09 09:13:59;;;;;;;4.28;1.30;;;;;;;16.59;83.68;101492.91;5015055;28;20034;-78
2022/06/09 09:16:36;;;;;;;4.85;1.85;;;;;;;16.56;83.87;101493.75;5012933;28;20095;-79
2022/06/09 09:19:51;;;;;;;4.63;1.50;;;;;;;16.59;85.69;101498.97;5003848;28;20038;-78
2022/06/09 09:22:35;;;;;;;5.45;1.88;;;;;;;16.60;85.02;101499.84;5009754;28;20072;-77
2022/06/09 09:25:17;;;;;;;4.18;2.03;;;;;;;16.56;85.17;101513.63;5021000;28;20037;-79
2022/06/09 09:28:14;;;;;;;3.95;2.00;;;;;;;16.61;85.48;101517.16;5017973;28;20108;-75
2022/06/09 09:31:04;;;;;;;5.72;2.20;;;;;;;16.62;85.60;101503.31;5015407;28;20034;-76
2022/06/09 09:33:30;;;;;;;5.20;2.15;;;;;;;16.66;86.12;101518.09;5021206;28;20506;-74
2022/06/09 09:36:03;;;;;;;4.78;2.10;;;;;;;16.72;85.19;101514.75;5010541;28;20037;-78
2022/06/09 09:38:58;;;;;;;5.07;2.00;;;;;;;16.78;84.14;101514.84;5014798;28;20846;-76
2022/06/09 09:41:36;;;;;;;4.60;2.15;;;;;;;16.82;84.75;101520.09;5008237;28;20049;-78
2022/06/09 09:44:25;;;;;;;5.80;1.60;;;;;;;16.91;84.24;101523.66;5013653;28;20036;-79
2022/06/09 09:46:52;;;;;;;7.28;1.70;;;;;;;16.92;82.72;101518.47;5016702;28;20033;-78
2022/06/09 09:49:31;;;;;;;4.78;1.70;;;;;;;17.02;83.37;101532.44;5014676;28;20068;-75
2022/06/09 09:51:59;;;;;;;6.30;2.22;;;;;;;17.02;83.37;101525.53;5013382;28;21674;-75
2022/06/09 09:54:31;;;;;;;5.10;1.88;;;;;;;17.10;81.49;101536.00;5014832;28;20053;-76
2022/06/09 09:57:16;;;;;;;6.75;2.10;;;;;;;17.16;82.10;101530.88;5013730;28;20026;-82
2022/06/09 09:59:46;;;;;;;5.57;2.50;;;;;;;17.25;82.81;101532.72;5023691;28;20112;-72
2022/06/09 10:08:36;;;;;;;4.93;2.55;;;;;;;17.43;81.60;101543.31;5023207;28;20072;-70
2022/06/09 10:11:53;;;;;;;4.70;2.25;;;;;;;17.50;82.00;101539.94;5016020;28;20037;-72
2022/06/09 10:13:50;;;;;;;5.70;2.42;;;;;;;17.63;83.28;101536.59;5021588;28;20076;-72
2022/06/09 10:16:17;;;;;;;4.13;2.03;;;;;;;17.80;81.09;101548.94;5017885;28;20469;-72
2022/06/09 10:18:44;;;;;;;6.85;2.22;;;;;;;17.92;81.13;101543.84;5014527;28;20041;-72
2022/06/09 10:21:13;;;;;;;6.15;2.10;;;;;;;18.08;78.96;101543.13;5017639;28;20033;-72
2022/06/09 10:23:44;;;;;;;7.30;2.17;;;;;;;18.20;78.78;101553.63;5018755;28;20420;-72
2022/06/09 10:26:17;;;;;;;6.82;2.38;;;;;;;18.31;76.98;101545.00;5016135;28;20029;-71
2022/06/09 10:28:55;;;;;;;4.95;2.20;;;;;;;18.31;76.18;101547.59;5011884;28;20029;-72
2022/06/09 10:31:45;;;;;;;4.15;2.08;;;;;;;18.47;77.37;101554.66;5014461;28;20468;-72
2022/06/09 10:34:17;;;;;;;6.75;2.30;;;;;;;18.61;77.10;101553.00;5021082;28;20025;-73
2022/06/09 10:37:04;;;;;;;7.75;2.58;;;;;;;18.63;74.78;101546.09;5014032;28;20044;-73
2022/06/09 10:39:39;;;;;;;6.93;2.08;;;;;;;18.68;76.97;101559.16;5011754;28;20128;-73
2022/06/09 10:42:22;;;;;;;4.85;2.05;;;;;;;18.67;76.09;101558.28;5019282;28;20040;-73
2022/06/09 10:45:15;;;;;;;6.22;2.10;;;;;;;18.65;76.46;101556.50;5018914;28;20021;-73
2022/06/09 10:57:01;;;;;;;5.00;1.70;;;;;;;19.19;73.34;101560.28;5022190;28;21317;-73
2022/06/09 10:59:36;;;;;;;4.90;1.60;;;;;;;19.14;72.88;101569.81;5017316;28;20040;-73
2022/06/09 11:02:08;;;;;;;5.25;1.60;;;;;;;19.01;72.85;101574.13;5017414;28;20117;-72
2022/06/09 11:04:36;;;;;;;4.53;1.50;;;;;;;18.94;72.98;101569.75;5020643;28;20503;-73
2022/06/09 11:07:13;;;;;;;4.07;1.60;;;;;;;19.00;73.55;101562.81;5020559;28;20026;-73
2022/06/09 11:09:42;;;;;;;6.65;1.73;;;;;;;19.06;73.69;101572.41;5018263;28;20018;-74
2022/06/09 11:12:23;;;;;;;;;;;;;;;19.16;74.73;101570.69;5017226;28;20374;-74
2022/06/09 11:15:11;;;;;;;3.63;1.38;;;;;;;19.01;70.94;101579.31;5018053;28;21082;-73
2022/06/09 11:18:06;;;;;;;5.70;2.42;;;;;;;18.94;70.67;101583.63;5017159;28;20026;-73
2022/06/09 11:21:12;;;;;;;8.00;1.90;;;;;;;18.90;70.18;101591.44;4970101;28;20042;-73
2022/06/09 11:24:19;;;;;;;7.53;1.73;;;;;;;18.91;71.12;101593.16;4979210;28;20120;-74
2022/06/09 11:27:14;;;;;;;7.75;1.63;;;;;;;18.89;69.88;101593.16;5012281;28;20053;-75
2022/06/09 11:29:55;;;;;;;6.47;1.65;;;;;;;18.83;68.95;101594.88;5016616;28;20032;-71
2022/06/09 11:32:45;;;;;;;7.15;1.80;;;;;;;18.87;70.35;101594.00;5023325;28;20078;-75
2022/06/09 11:35:32;;;;;;;7.80;1.80;;;;;;;19.02;69.65;101599.31;5017824;28;20018;-75
2022/06/09 11:38:22;;;;;;;7.82;1.70;;;;;;;19.03;68.01;101598.44;5021960;28;20033;-76
2022/06/09 11:41:05;;;;;;;9.15;2.83;;;;;;;19.15;68.42;101597.63;5016940;28;20021;-75
2022/06/09 11:43:58;;;;;;;7.53;1.58;;;;;;;19.20;68.75;101596.78;5022250;28;20026;-73
2022/06/09 11:46:35;;;;;;;7.20;1.70;;;;;;;19.31;68.22;101606.41;5019770;28;20037;-75
2022/06/09 11:49:10;;;;;;;6.75;1.60;;;;;;;19.22;65.42;101613.28;5013975;28;20021;-76
2022/06/09 11:51:36;;;;;;;6.57;1.83;;;;;;;19.24;66.00;101606.38;5018937;28;20032;-73
2022/06/09 11:54:07;;;;;;;7.43;1.40;;;;;;;19.42;69.04;101612.53;5019180;28;20025;-77
2022/06/09 11:56:36;;;;;;;4.63;1.38;;;;;;;19.47;64.64;101616.00;5015664;28;20111;-74
2022/06/09 11:59:11;;;;;;;6.45;1.52;;;;;;;19.48;64.69;101628.19;5016052;28;20025;-69
2022/06/09 12:01:39;;;;;;;8.23;1.27;;;;;;;19.59;65.18;101626.50;5035676;28;20046;-76
2022/06/09 12:04:43;;;;;;;6.35;1.40;;;;;;;19.63;64.34;101623.03;5018498;28;20038;-71